Station: Burketown Airport  

  Atmospheric Gas Attenuation - ITU Rec 676-11   ----------------- dB/100km -----------------
Date Time Temp RH % AH g/m3 Dew Point Wind Direction Speed kph Gust kph Barometer mB Rainfall Since 9am 24GHz 47GHz 76GHz 122GHz 134GHz 241GHz
08/05 12:30 31.2 34 11 13.5 28 43 1014 0 23.7 24.7 40.1 105.6 105.3 364.9
08/05 12:20 31.1 34 10.94 13.4 26 30 1014.2 0 23.6 24.6 40.0 105.2 104.8 363.0
08/05 12:10 31.2 33 10.68 13 30 37 1014.2 0 23.1 24.2 39.0 102.7 101.8 352.3
08/05 12:00 29.9 33 9.96 12.3 26 35 1014.4 0 21.6 23.6 37.2 97.8 95.3 329.6
08/05 11:50 30.4 34 10.54 12.8 24 32 1014.6 0 22.8 24.3 39.0 102.5 101.2 350.4
08/05 11:40 29.7 35 10.44 12.6 33 35 1014.8 0 22.6 24.3 39.0 102.4 101.0 349.4
08/05 11:30 29.8 35 10.5 12.7 26 37 1015 0 22.8 24.4 39.1 102.9 101.6 351.5
08/05 11:20 29 33 9.48 11.1 28 32 1015.2 0 20.7 23.2 36.0 94.5 91.1 314.6
08/05 11:10 28.6 34 9.56 11.6 37 43 1015.3 0 20.9 23.4 36.5 95.7 92.4 319.3
08/05 11:00 29.2 35 10.16 12.2 28 37 1015.4 0 22.1 24.1 38.2 100.5 98.5 340.6
08/05 10:50 28.4 35 9.73 11.5 28 33 1015.5 0 21.2 23.7 37.1 97.5 94.6 326.9
08/05 10:40 28.3 35 9.68 11.4 30 33 1015.5 0 21.1 23.6 37.0 97.2 94.1 325.3
08/05 10:30 27.8 36 9.68 11.4 30 43 1015.6 0 21.2 23.8 37.2 97.8 94.7 327.3
08/05 10:20 26.6 35 8.81 9.9 37 43 1015.6 0 19.4 22.9 34.8 91.2 86.2 297.4
08/05 10:10 26.8 35 8.91 10.1 35 41 1015.6 0 19.6 23.0 35.0 91.9 87.2 300.7
08/05 10:00 26.7 36 9.11 10.4 30 39 1015.6 0 20.0 23.3 35.8 93.9 89.5 308.9
08/05 09:50 26.7 36 9.11 10.4 26 32 1015.6 0 20.0 23.3 35.8 93.9 89.5 308.9
08/05 09:40 25.4 36 8.48 9.3 37 43 1015.6 0 18.8 22.7 34.2 89.5 83.8 288.7
08/05 09:30 25.3 36 8.43 9.2 35 46 1015.6 0 18.7 22.7 34.0 89.2 83.3 287.1
08/05 09:20 24.9 36 8.24 8.8 37 43 1015.5 0 18.3 22.5 33.5 87.9 81.6 281.0
08/05 09:10 24.7 37 8.37 9 33 41 1015.4 0 18.6 22.7 34.1 89.3 83.3 286.8
08/05 09:00 24.1 37 8.1 8.5 32 41 1015.4 0 18.1 22.5 33.4 87.4 80.8 278.1
08/05 08:50 23.6 37 7.87 8.1 30 32 1015.4 0 17.6 22.3 32.8 85.9 78.7 270.7
08/05 08:40 23 38 7.81 7.9 30 39 1015.3 0 17.5 22.3 32.8 85.9 78.6 270.3
08/05 08:30 22.8 38 7.72 7.8 32 43 1015.4 0 17.3 22.3 32.6 85.3 77.8 267.4
08/05 08:20 22.6 40 8.03 8.3 26 32 1015.3 0 18.0 22.7 33.8 88.4 81.5 280.4
08/05 08:10 22.1 40 7.81 7.9 28 32 1015.3 0 17.5 22.6 33.2 86.9 79.5 273.3
08/05 08:00 21.8 41 7.87 8 28 37 1015.1 0 17.7 22.7 33.5 87.7 80.5 276.7
08/05 07:50 21.5 42 7.92 8.1 24 28 1015.1 0 17.8 22.9 33.8 88.5 81.4 279.7
08/05 07:40 21.1 43 7.92 8 22 26 1015 0 17.8 23.0 34.0 89.0 81.8 281.1
08/05 07:30 21 43 7.88 8 24 33 1015 0 17.7 22.9 33.9 88.7 81.4 279.8
08/05 07:20 20.7 44 7.92 8 24 28 1014.9 0 17.8 23.0 34.1 89.4 82.2 282.4
08/05 07:10 20.6 44 7.87 7.9 24 28 1014.7 0 17.7 23.0 34.0 89.0 81.7 280.7
08/05 07:00 20.7 44 7.92 8 28 37 1014.5 0 17.8 23.0 34.1 89.4 82.1 282.4
08/05 06:50 20.8 44 7.97 8.1 28 33 1014.4 0 17.9 23.1 34.2 89.7 82.6 284.0
08/05 06:40 20.8 44 7.97 8.1 26 35 1014.3 0 17.9 23.1 34.2 89.7 82.6 284.0
08/05 06:30 20.8 44 7.97 8.1 26 37 1014.3 0 17.9 23.1 34.2 89.7 82.6 284.0
08/05 06:20 20.9 45 8.19 8.5 26 32 1014.2 0 18.4 23.4 35.0 91.7 85.1 292.7
08/05 06:10 20.8 45 8.15 8.4 24 30 1014.1 0 18.3 23.3 34.9 91.4 84.7 291.4
08/05 06:00 20.6 47 8.41 8.9 22 30 1014.1 0 18.9 23.8 35.9 94.1 88.0 303.0
08/05 05:50 20.4 48 8.49 9 22 26 1014.1 0 19.0 23.9 36.3 95.2 89.2 307.1
08/05 05:40 20.4 49 8.67 9.3 20 26 1014 0 19.4 24.2 36.9 96.9 91.4 314.7
08/05 05:30 20.5 49 8.72 9.4 22 32 1014.1 0 19.5 24.2 37.1 97.3 91.9 316.4
08/05 05:20 20.5 50 8.9 9.7 22 26 1014 0 19.9 24.5 37.7 99.1 94.0 324.1
08/05 05:10 20.4 50 8.84 9.6 20 24 1014 0 19.8 24.4 37.6 98.6 93.4 321.9
08/05 05:00 20.5 50 8.9 9.7 20 28 1013.9 0 19.9 24.5 37.7 99.0 94.0 324.1
08/05 04:50 20.7 50 9 9.9 22 24 1013.9 0 20.1 24.6 38.0 99.8 95.0 327.5
08/05 04:40 20.8 50 9.05 10 20 24 1013.9 0 20.2 24.7 38.2 100.2 95.5 329.2
08/05 04:30 20.8 50 9.05 10 20 24 1013.9 0 20.2 24.7 38.2 100.2 95.5 329.2
08/05 04:20 21 50 9.16 10.2 20 24 1014 0 20.4 24.8 38.5 101.0 96.6 333.1
08/05 04:10 21 50 9.16 10.2 22 26 1013.9 0 20.4 24.8 38.5 101.0 96.6 333.1
08/05 04:00 21.1 51 9.4 10.6 20 26 1013.9 0 20.9 25.1 39.3 103.3 99.4 343.0
08/05 03:50 21.1 51 9.4 10.6 19 24 1014 0 20.9 25.1 39.3 103.3 99.4 343.0
08/05 03:40 21 52 9.52 10.8 19 24 1013.9 0 21.2 25.3 39.8 104.6 101.0 348.6
08/05 03:30 21.2 53 9.82 11.2 20 24 1014 0 21.8 25.7 40.9 107.4 104.5 360.8
08/05 03:20 21.3 53 9.88 11.3 20 22 1013.9 0 21.9 25.8 41.0 107.8 105.1 362.9
08/05 03:10 21.4 53 9.94 11.4 20 22 1013.9 0 22.0 25.8 41.2 108.3 105.7 365.1
08/05 03:00 21.4 53 9.94 11.4 19 28 1013.9 0 22.0 25.8 41.2 108.3 105.7 365.1
08/05 02:50 21.8 53 10.17 11.8 20 26 1013.9 0 22.5 26.1 41.9 110.1 108.1 373.3
08/05 02:40 21.9 53 10.23 11.9 22 26 1014.1 0 22.6 26.1 42.1 110.6 108.7 375.5
08/05 02:30 22 53 10.29 12 20 28 1014.1 0 22.8 26.2 42.2 111.0 109.3 377.7
08/05 02:20 22 53 10.29 12 20 22 1014.2 0 22.8 26.2 42.2 111.1 109.3 377.7
08/05 02:10 22.2 53 10.4 12.2 19 22 1014.2 0 23.0 26.3 42.5 111.9 110.4 381.6
08/05 02:00 22.3 53 10.46 12.3 22 28 1014.3 0 23.1 26.4 42.7 112.4 111.0 383.8
08/05 01:50 22.7 52 10.51 12.3 22 28 1014.3 0 23.2 26.3 42.7 112.3 111.1 384.0
08/05 01:40 22.7 52 10.51 12.3 20 26 1014.3 0 23.2 26.3 42.7 112.3 111.1 384.0
08/05 01:30 22.8 52 10.57 12.4 20 28 1014.3 0 23.3 26.4 42.9 112.8 111.7 386.2
08/05 01:20 22.8 52 10.57 12.4 20 24 1014.3 0 23.3 26.4 42.9 112.8 111.7 386.2
08/05 01:10 22.9 52 10.63 12.5 20 28 1014.4 0 23.4 26.5 43.1 113.3 112.3 388.3
08/05 01:00 22.9 52 10.63 12.5 19 26 1014.5 0 23.4 26.5 43.1 113.3 112.3 388.4
08/05 00:50 23.1 52 10.75 12.7 19 20 1014.4 0 23.7 26.6 43.4 114.2 113.5 392.6
08/05 00:40 23.4 51 10.72 12.7 19 22 1014.4 0 23.6 26.5 43.1 113.5 112.7 389.8
08/05 00:30 23.6 51 10.85 12.9 20 28 1014.4 0 23.8 26.6 43.5 114.5 114.1 394.5
08/05 00:20 23.6 51 10.85 12.9 20 26 1014.4 0 23.8 26.6 43.5 114.5 114.1 394.5
08/05 00:10 23.7 51 10.91 13 19 22 1014.4 0 24.0 26.7 43.7 115.0 114.7 396.6
08/05 00:00 23.8 51 10.97 13.1 19 24 1014.5 0 24.1 26.7 43.9 115.4 115.3 398.8
07/05 23:50 23.9 51 11.03 13.2 20 24 1014.5 0 24.2 26.8 44.0 115.9 115.9 400.9
07/05 23:40 24.1 51 11.16 13.3 20 26 1014.5 0 24.5 26.9 44.4 116.9 117.2 405.6
07/05 23:30 24.4 50 11.13 13.3 20 26 1014.6 0 24.4 26.8 44.2 116.2 116.4 402.8
07/05 23:20 24.2 50 11 13.1 17 20 1014.7 0 24.1 26.7 43.8 115.2 115.1 398.2
07/05 23:10 24.4 50 11.13 13.3 17 20 1014.7 0 24.4 26.8 44.2 116.2 116.4 402.8
07/05 23:00 24.4 51 11.35 13.6 19 24 1014.8 0 24.8 27.2 45.0 118.5 119.2 412.5
07/05 22:50 24.5 51 11.41 13.7 19 20 1014.8 0 25.0 27.2 45.2 118.9 119.8 414.6
07/05 22:40 24.4 52 11.57 13.9 19 24 1014.7 0 25.3 27.5 45.8 120.7 121.9 422.1
07/05 22:30 24.4 53 11.79 14.2 19 24 1014.8 0 25.8 27.8 46.7 123.0 124.7 431.9
07/05 22:20 24.1 55 12.03 14.5 19 22 1014.8 0 26.3 28.3 47.8 125.9 128.3 444.3
07/05 22:10 24 56 12.18 14.7 15 17 1014.8 0 26.6 28.6 48.5 127.7 130.4 451.6
07/05 22:00 23.9 56 12.11 14.6 17 22 1014.8 0 26.5 28.5 48.2 127.1 129.6 449.0
07/05 21:50 23.5 59 12.48 15 15 17 1014.7 0 27.3 29.2 50.0 131.7 135.1 468.2
07/05 21:40 23.2 60 12.47 15 13 13 1014.7 0 27.3 29.3 50.1 132.1 135.5 469.5
07/05 21:30 23.2 60 12.47 15 13 15 1014.6 0 27.3 29.3 50.1 132.1 135.5 469.5
07/05 21:20 23.2 60 12.47 15 13 13 1014.6 0 27.3 29.3 50.1 132.1 135.5 469.5
07/05 21:10 23.6 59 12.55 15.1 13 15 1014.5 0 27.4 29.3 50.2 132.2 135.9 470.8
07/05 21:00 24 57 12.4 15 13 15 1014.5 0 27.1 28.9 49.3 130.0 133.2 461.5
07/05 20:50 24.2 56 12.32 15.1 13 15 1014.4 0 26.9 28.7 48.9 128.8 131.8 456.7
07/05 20:40 24 57 12.4 15 13 17 1014.3 0 27.1 28.9 49.3 129.9 133.2 461.5
07/05 20:30 24.3 56 12.39 15 13 17 1014.3 0 27.0 28.8 49.1 129.3 132.6 459.2
07/05 20:20 24.5 55 12.31 15.1 13 15 1014.2 0 26.9 28.6 48.6 128.2 131.2 454.4
07/05 20:10 24.3 57 12.61 15.2 13 15 1014 0 27.5 29.1 49.9 131.6 135.4 469.1
07/05 20:00 24.3 57 12.61 15.2 13 15 1014 0 27.5 29.1 49.9 131.6 135.4 469.1

Last Refresh: 08-May-2026 12:08:16

Bureau of Meteorology